Terminal Aerodrome Forecast
Issued by NWS

Home | Current Version | Previous Version | Text Only | Print | Product List | Glossary On
Versions: 1 2 3 4 5 6 7 8 9 10 11 12 13
000
FTUS46 KMTR 310539
TAFSJC
TAF
KSJC 310539Z 3106/0106 30008KT P6SM FEW120 BKN180
     FM311000 VRB03KT P6SM BKN015
     FM311600 VRB03KT P6SM FEW015 FEW150
     FM311800 30005KT P6SM FEW200
     FM312100 31010KT P6SM FEW200=

USA.gov is the U.S. government's official web portal to all federal, state and local government web resources and services.